Flight Track Log - Related Links

Times and Time Zones

All times are in EDT time to prevent confusion due to time zone crossing. See the AAL2007 flight status page for this flight to view local times or setup timezone preferences in your user account.

Time Position Orientation Groundspeed Altitude Reporting Facility
EDT Latitude Longitude Course Direction KTS MPH feet Rate Location/Type
Sun 06:14:56 PM 42.0000 -87.9333 253° West 162 186 1,600  Level Chicago TRACON
Sun 06:17:27 PM 42.1203 -88.0506 324° Northwest 256 295 6,100 2,085 Climbing Chicago Center
Sun 06:18:00 PM 41.8274 -88.5102 254° West  Level FlightAware Approximate
Sun 06:18:29 PM 42.1292 -88.1528 277° West 295 339 9,000  Level Chicago Center
Sun 06:19:00 PM 41.7932 -88.6651 254° West  Level FlightAware Approximate
Sun 06:19:31 PM 42.0961 -88.2769 250° West 297 342 11,900  Level Chicago Center
Sun 06:20:00 PM 41.7588 -88.8198 253° West  Level FlightAware Approximate
Sun 06:20:34 PM 42.0406 -88.3878 236° Southwest 363 418 12,700  Level Chicago Center
Sun 06:21:36 PM 41.9783 -88.5103 236° Southwest 393 452 15,400 2,358 Climbing Chicago Center
Sun 06:23:27 PM 41.8758 -88.7672 242° Southwest 400 460 19,500 2,081 Climbing Kansas City Center
Sun 06:24:29 PM 41.8344 -88.9247 251° West 419 482 21,400 1,790 Climbing Kansas City Center
Sun 06:25:31 PM 41.7919 -89.0833 250° West 441 507 23,200 1,645 Climbing Kansas City Center
Sun 06:26:33 PM 41.7436 -89.2397 248° West 452 520 24,800 1,548 Climbing Kansas City Center
Sun 06:27:35 PM 41.6981 -89.3978 249° West 455 524 26,400 1,463 Climbing Kansas City Center
Sun 06:28:36 PM 41.6500 -89.5572 248° West 461 531 27,800 1,707 Climbing Kansas City Center
Sun 06:29:38 PM 41.5933 -89.7464 248° West 461 531 29,900 1,694 Climbing Kansas City Center
Sun 06:30:40 PM 41.5450 -89.9025 248° West 458 527 31,300 1,258 Climbing Kansas City Center
Sun 06:31:42 PM 41.4994 -90.0556 248° West 451 519 32,500 1,036 Climbing Kansas City Center
Sun 06:32:59 PM 41.4456 -90.2339 248° West 444 511 33,700 647 Climbing Chicago Center
Sun 06:34:01 PM 41.3911 -90.4158 248° West 445 512 34,000 145 Climbing Chicago Center
Sun 06:35:03 PM 41.3450 -90.5653 248° West 441 507 34,000  Level Chicago Center
Sun 06:36:05 PM 41.2839 -90.7053 240° Southwest 438 504 34,000  Level Chicago Center
Sun 06:37:07 PM 41.2103 -90.8297 232° Southwest 430 495 34,000  Level Chicago Center
Sun 06:38:09 PM 41.1350 -90.9539 231° Southwest 431 496 34,000  Level Chicago Center
Sun 06:39:11 PM 41.0608 -91.0800 232° Southwest 434 499 34,000  Level Chicago Center
Sun 06:40:13 PM 40.9714 -91.2286 231° Southwest 432 497 34,000  Level Chicago Center
Sun 06:41:15 PM 40.9064 -91.3386 232° Southwest 433 498 34,000  Level Chicago Center
Sun 06:42:17 PM 40.8158 -91.4867 231° Southwest 433 498 34,000  Level Chicago Center
Sun 06:43:19 PM 40.7411 -91.6103 231° Southwest 434 499 34,000  Level Chicago Center
Sun 06:44:21 PM 40.6622 -91.7292 229° Southwest 433 498 34,000  Level Chicago Center
Sun 06:45:23 PM 40.5681 -91.8211 217° Southwest 425 489 34,000  Level Chicago Center
Sun 06:46:08 PM 40.4906 -91.8956 216° Southwest 428 493 34,000  Level Kansas City Center
Sun 06:47:10 PM 40.3961 -91.9906 217° Southwest 429 494 34,000  Level Kansas City Center
Sun 06:48:12 PM 40.3006 -92.0850 217° Southwest 429 494 34,000  Level Kansas City Center
Sun 06:49:14 PM 40.2044 -92.1786 217° Southwest 429 494 34,000  Level Kansas City Center
Sun 06:50:16 PM 40.0886 -92.2925 217° Southwest 432 497 34,000  Level Kansas City Center
Sun 06:51:17 PM 39.9908 -92.3856 216° Southwest 432 497 34,000  Level Kansas City Center
Sun 06:52:19 PM 39.8942 -92.4783 216° Southwest 431 496 34,000  Level Kansas City Center
Sun 06:53:21 PM 39.7972 -92.5714 216° Southwest 432 497 34,000  Level Kansas City Center
Sun 06:55:25 PM 39.6025 -92.7581 216° Southwest 436 502 34,000  Level Kansas City Center
Sun 06:56:26 PM 39.5042 -92.8511 216° Southwest 437 503 34,000  Level Kansas City Center
Sun 06:57:28 PM 39.3869 -92.9617 216° Southwest 438 504 34,000  Level Kansas City Center
Sun 06:58:30 PM 39.2900 -93.0550 217° Southwest 438 504 34,000  Level Kansas City Center
Sun 06:59:32 PM 39.1925 -93.1464 216° Southwest 437 503 34,000  Level Kansas City Center
Sun 07:01:00 PM 39.0552 -93.2686 215° Southwest  Level FlightAware Approximate
Sun 07:01:35 PM 38.9889 -93.3358 215° Southwest 441 507 34,000  Level Kansas City Center
Sun 07:02:37 PM 38.8894 -93.4278 216° Southwest 440 506 34,000  Level Kansas City Center
Sun 07:03:39 PM 38.7903 -93.5189 216° Southwest 439 505 34,000  Level Kansas City Center
Sun 07:04:41 PM 38.6678 -93.6319 216° Southwest 445 512 34,000  Level Kansas City Center
Sun 07:05:43 PM 38.5639 -93.7258 215° Southwest 451 519 34,000  Level Kansas City Center
Sun 07:06:45 PM 38.4583 -93.8222 216° Southwest 458 527 34,000  Level Kansas City Center
Sun 07:07:46 PM 38.3544 -93.9175 216° Southwest 461 531 34,000  Level Kansas City Center
Sun 07:08:48 PM 38.2503 -94.0114 215° Southwest 460 529 34,000  Level Kansas City Center
Sun 07:09:50 PM 38.1458 -94.1050 215° Southwest 459 528 34,000  Level Kansas City Center
Sun 07:10:52 PM 38.0308 -94.2086 215° Southwest 456 525 34,000  Level Kansas City Center
Sun 07:11:54 PM 37.9178 -94.3089 215° Southwest 456 525 34,000  Level Kansas City Center
Sun 07:12:56 PM 37.8131 -94.4017 215° Southwest 458 527 34,000  Level Kansas City Center
Sun 07:13:58 PM 37.7142 -94.4875 214° Southwest 454 522 34,000  Level Kansas City Center
Sun 07:14:59 PM 37.6081 -94.5825 215° Southwest 453 521 34,000  Level Kansas City Center
Sun 07:16:01 PM 37.5053 -94.6706 214° Southwest 446 513 34,000  Level Kansas City Center
Sun 07:17:03 PM 37.4050 -94.7594 215° Southwest 443 510 34,000  Level Kansas City Center
Sun 07:18:05 PM 37.3042 -94.8483 215° Southwest 442 509 34,000  Level Kansas City Center
Sun 07:19:07 PM 37.1839 -94.9531 215° Southwest 439 505 34,000  Level Kansas City Center
Sun 07:20:09 PM 37.0836 -95.0375 214° Southwest 436 502 34,000  Level Kansas City Center
Sun 07:21:11 PM 36.9836 -95.1256 215° Southwest 436 502 34,000  Level Kansas City Center
Sun 07:22:12 PM 36.8819 -95.2133 215° Southwest 442 509 34,000  Level Kansas City Center
Sun 07:23:14 PM 36.7789 -95.3003 214° Southwest 445 512 34,000  Level Kansas City Center
Sun 07:24:16 PM 36.6747 -95.3894 214° Southwest 452 520 34,000  Level Kansas City Center
Sun 07:25:18 PM 36.5647 -95.4833 214° Southwest 455 524 34,000  Level Kansas City Center
Sun 07:26:20 PM 36.4578 -95.5717 214° Southwest 460 529 34,000  Level Kansas City Center
Sun 07:27:21 PM 36.3525 -95.6586 214° Southwest 456 525 34,000  Level Kansas City Center
Sun 07:28:23 PM 36.2283 -95.7614 214° Southwest 449 517 34,000  Level Kansas City Center
Sun 07:29:25 PM 36.1256 -95.8203 205° Southwest 457 526 34,000  Level Kansas City Center
Sun 07:30:27 PM 35.9789 -95.8814 199° South 465 535 34,000  Level Kansas City Center
Sun 07:31:29 PM 35.8578 -95.9339 199° South 463 533 34,000  Level Kansas City Center
Sun 07:32:31 PM 35.7372 -95.9861 199° South 460 529 34,000  Level Kansas City Center
Sun 07:33:32 PM 35.6175 -96.0378 199° South 456 525 34,000  Level Kansas City Center
Sun 07:34:34 PM 35.5061 -96.0867 200° South 458 527 34,000  Level Kansas City Center
Sun 07:35:36 PM 35.3631 -96.1492 200° South 455 524 34,000  Level Kansas City Center
Sun 07:36:38 PM 35.2425 -96.2003 199° South 457 526 34,000  Level Kansas City Center
Sun 07:37:40 PM 35.1172 -96.2561 200° South 461 531 34,000  Level Fort Worth Center
Sun 07:38:40 PM 34.9967 -96.3058 199° South 461 531 34,000  Level Fort Worth Center
Sun 07:39:40 PM 34.8803 -96.3556 199° South 461 531 34,000  Level Fort Worth Center
Sun 07:40:40 PM 34.7619 -96.4075 200° South 461 531 34,000  Level Fort Worth Center
Sun 07:41:40 PM 34.6433 -96.4569 199° South 461 531 34,000  Level Fort Worth Center
Sun 07:42:40 PM 34.5206 -96.4961 195° South 456 525 34,000  Level Fort Worth Center
Sun 07:43:40 PM 34.3956 -96.5225 190° South 456 525 34,000  Level Fort Worth Center
Sun 07:44:40 PM 34.2683 -96.5514 191° South 456 525 34,000  Level Fort Worth Center
Sun 07:45:40 PM 34.1456 -96.5803 191° South 456 525 34,000  Level Fort Worth Center
Sun 07:46:40 PM 34.0206 -96.6092 191° South 456 525 34,000  Level Fort Worth Center
Sun 07:47:40 PM 33.8997 -96.6353 190° South 456 525 34,000  Level Fort Worth Center
Sun 07:48:40 PM 33.7914 -96.6586 190° South 449 517 34,000  Level Fort Worth Center
Sun 07:49:40 PM 33.6536 -96.6872 190° South 455 524 34,000  Level Fort Worth Center
Sun 07:50:40 PM 33.5411 -96.7131 191° South 460 529 34,000  Level Fort Worth Center
Sun 07:51:40 PM 33.4036 -96.7442 191° South 460 529 34,000  Level Fort Worth Center
Sun 07:53:40 PM 33.1556 -96.7981 190° South 466 536 34,000  Level Fort Worth Center
Sun 07:54:40 PM 33.0283 -96.8236 190° South 466 536 34,000  Level Fort Worth Center
Sun 07:55:40 PM 32.9031 -96.8517 191° South 466 536 34,000  Level Fort Worth Center
Sun 07:56:40 PM 32.7781 -96.8747 189° South 466 536 34,000 -550 Level Fort Worth Center
Sun 07:57:40 PM 32.6528 -96.9025 191° South 466 536 32,900 -1,000 Descending Fort Worth Center
Sun 07:58:40 PM 32.5256 -96.9306 191° South 466 536 32,000 -950 Descending Fort Worth Center
Sun 07:59:40 PM 32.3983 -96.9583 190° South 465 535 31,000 -950 Descending Fort Worth Center
Sun 08:00:40 PM 32.2689 -96.9858 190° South 471 542 30,100 -950 Descending Fort Worth Center
Sun 08:01:40 PM 32.1564 -97.0133 192° South 464 534 29,100 -1,000 Descending Fort Worth Center
Sun 08:02:40 PM 32.0269 -97.0383 189° South 469 540 28,100 -1,000 Descending Fort Worth Center
Sun 08:03:40 PM 31.8975 -97.0658 190° South 469 540 27,100 -1,071 Descending Fort Worth Center
Sun 08:04:04 PM 31.8294 -97.0797 190° South 474 545 26,600 -1,000 Descending Houston Center
Sun 08:04:40 PM 31.7578 -97.0958 191° South 469 540 26,100 -938 Descending Fort Worth Center
Sun 08:05:40 PM 31.6264 -97.1206 189° South 469 540 25,100 -1,159 Descending Fort Worth Center
Sun 08:06:08 PM 31.5725 -97.1311 189° South 463 533 24,400 -1,267 Descending Houston Center
Sun 08:07:10 PM 31.4458 -97.1589 191° South 460 529 23,200 -1,561 Descending Houston Center
Sun 08:08:11 PM 31.3208 -97.1839 190° South 453 521 21,200 -2,049 Descending Houston Center
Sun 08:09:13 PM 31.1981 -97.2122 191° South 448 516 19,000 -2,081 Descending Houston Center
Sun 08:10:15 PM 31.0878 -97.2553 198° South 421 484 16,900 -2,081 Descending Houston Center
Sun 08:11:17 PM 30.9836 -97.2964 199° South 403 464 14,700 -1,935 Descending Houston Center
Sun 08:12:19 PM 30.8639 -97.3425 198° South 402 463 12,900 -1,500 Descending Houston Center
Sun 08:13:21 PM 30.7625 -97.3817 198° South 385 443 11,600 -1,306 Descending Houston Center
Sun 08:14:23 PM 30.6594 -97.4225 199° South 386 444 10,200 -774 Descending Houston Center
Sun 08:15:25 PM 30.5597 -97.4608 198° South 378 435 10,000 -629 Descending Houston Center
Sun 08:16:27 PM 30.4753 -97.4931 198° South 324 373 8,900 -1,463 Descending Houston Center
Sun 08:17:28 PM 30.3783 -97.5311 199° South 314 361 7,000 -1,512 Descending Houston Center
Sun 08:18:30 PM 30.2953 -97.5431 187° South 299 344 5,800 -1,016 Descending Houston Center
Sun 08:19:32 PM 30.2156 -97.5461 182° South 287 330 4,900 -823 Descending Houston Center
Sun 08:20:34 PM 30.1442 -97.5517 184° South 264 304 4,100 -968 Descending Houston Center
Sun 08:21:36 PM 30.1028 -97.5886 218° Southwest 226 260 2,900 -1,065 Descending Houston Center
Sun 08:22:38 PM 30.1042 -97.6469 272° West 191 220 1,900 -871 Descending Houston Center
Sun 08:23:40 PM 30.1431 -97.6561 348° North 158 182 1,100 -774 Descending Houston Center

Login

Don't have an account? Register now (free) for customized features, flight alerts, and more!